Time;durP1;ratioP1;P1;durP2;ratioP2;P2;SDS_P1;SDS_P2;PMS_P1;PMS_P2;Temp;Humidity;BMP_temperature;BMP_pressure;BME280_temperature;BME280_humidity;BME280_pressure;Samples;Min_cycle;Max_cycle;Signal;HPM_P1;HPM_P2
2022/07/16 00:02:31;;;;;;;1.25;0.85;;;;;;;22.88;41.82;102013.59;5068090;28;20032;-60
2022/07/16 00:04:57;;;;;;;1.30;0.95;;;;;;;22.90;41.82;102017.03;5067703;28;20067;-60
2022/07/16 00:07:22;;;;;;;1.20;0.80;;;;;;;22.90;41.69;102019.75;5068786;28;20108;-60
2022/07/16 00:09:47;;;;;;;1.08;0.80;;;;;;;22.89;41.70;102018.00;5068832;28;20031;-60
2022/07/16 00:12:13;;;;;;;0.85;0.70;;;;;;;22.89;41.69;102011.72;5087389;28;20031;-60
2022/07/16 00:14:38;;;;;;;1.83;0.75;;;;;;;22.88;41.65;102015.44;5088274;28;20092;-60
2022/07/16 00:17:03;;;;;;;1.13;0.75;;;;;;;22.88;41.63;102016.31;5087933;28;20047;-60
2022/07/16 00:19:29;;;;;;;1.10;0.82;;;;;;;22.66;41.73;101981.72;5087589;28;20020;-60
2022/07/16 00:21:55;;;;;;;1.00;0.65;;;;;;;22.87;41.64;102019.19;5088891;28;20052;-60
2022/07/16 00:24:21;;;;;;;1.23;0.80;;;;;;;22.87;41.66;102017.31;5087198;28;20020;-61
2022/07/16 00:26:47;;;;;;;1.05;0.80;;;;;;;22.63;41.65;101979.34;5088667;28;20028;-61
2022/07/16 00:29:15;;;;;;;1.67;0.60;;;;;;;22.86;41.29;102015.63;5086621;28;20023;-62
2022/07/16 00:31:40;;;;;;;2.47;0.70;;;;;;;22.86;41.50;102014.78;5087258;28;20050;-60
2022/07/16 00:34:07;;;;;;;1.70;0.73;;;;;;;22.86;41.41;102012.06;5086899;28;20028;-60
2022/07/16 00:36:33;;;;;;;1.92;0.90;;;;;;;22.72;41.45;101989.16;5088606;28;20029;-60
2022/07/16 00:38:58;;;;;;;1.20;0.80;;;;;;;22.85;41.37;102010.34;5088133;28;20024;-59
2022/07/16 00:41:23;;;;;;;1.38;0.80;;;;;;;22.85;41.55;102018.50;5088467;28;20108;-60
2022/07/16 00:43:52;;;;;;;2.17;1.20;;;;;;;22.85;41.45;102013.94;5087482;28;20035;-60
2022/07/16 00:46:17;;;;;;;1.10;0.70;;;;;;;22.85;41.47;102007.66;5086618;28;20136;-59
2022/07/16 00:48:44;;;;;;;1.50;0.95;;;;;;;22.84;41.30;102008.66;5088042;28;20028;-60
2022/07/16 00:51:09;;;;;;;1.17;0.73;;;;;;;22.81;41.44;102004.44;5087049;28;20016;-60
2022/07/16 00:53:35;;;;;;;1.63;0.85;;;;;;;22.83;41.37;102010.53;5087855;28;20035;-60
2022/07/16 00:56:01;;;;;;;1.13;0.88;;;;;;;22.83;41.30;102005.13;5088329;28;20088;-59
2022/07/16 00:58:27;;;;;;;2.03;1.05;;;;;;;22.82;41.21;102013.44;5085878;28;20079;-61
2022/07/16 01:00:52;;;;;;;1.08;0.77;;;;;;;22.82;41.51;102010.72;5087741;28;20021;-60
2022/07/16 01:03:17;;;;;;;1.75;0.90;;;;;;;22.81;41.21;102007.16;5072434;28;20484;-60
2022/07/16 01:05:43;;;;;;;3.70;1.20;;;;;;;22.82;41.18;102008.00;5085653;28;20035;-60
2022/07/16 01:08:08;;;;;;;1.45;0.90;;;;;;;22.81;41.20;102009.88;5066368;28;20486;-60
2022/07/16 01:10:34;;;;;;;1.77;0.95;;;;;;;22.79;41.33;102005.63;5073452;28;20020;-60
2022/07/16 01:13:00;;;;;;;1.67;0.77;;;;;;;22.60;41.18;101979.66;5086264;28;20088;-59
2022/07/16 01:15:25;;;;;;;2.92;0.95;;;;;;;22.78;41.51;102002.06;5086007;28;20569;-59
2022/07/16 01:17:50;;;;;;;2.38;0.90;;;;;;;22.60;40.93;101977.81;5086508;28;20497;-59
2022/07/16 01:20:16;;;;;;;1.65;0.98;;;;;;;22.78;41.22;102004.78;5072438;28;20493;-59
2022/07/16 01:22:41;;;;;;;1.92;0.77;;;;;;;22.57;41.24;101970.00;5066343;28;20025;-60
2022/07/16 01:25:11;;;;;;;1.00;0.65;;;;;;;22.77;41.18;102005.81;5067350;28;20024;-59
2022/07/16 01:27:36;;;;;;;1.83;1.00;;;;;;;22.78;41.09;102002.06;5067551;28;20105;-59
2022/07/16 01:30:02;;;;;;;2.00;0.80;;;;;;;22.56;41.36;101971.03;5065712;28;20021;-59
2022/07/16 01:32:27;;;;;;;1.20;0.90;;;;;;;22.77;41.39;101999.50;5067453;28;20020;-60
2022/07/16 01:34:52;;;;;;;1.30;0.85;;;;;;;22.57;41.26;101963.75;5066992;28;20550;-60
2022/07/16 01:37:18;;;;;;;2.28;0.90;;;;;;;22.77;41.04;102003.09;5082089;28;20029;-60
2022/07/16 01:39:43;;;;;;;2.30;0.82;;;;;;;22.77;41.41;101997.66;5085885;28;20016;-60
2022/07/16 01:42:10;;;;;;;1.95;1.08;;;;;;;22.77;41.05;101992.25;5085572;28;20032;-61
2022/07/16 01:44:36;;;;;;;1.80;1.08;;;;;;;22.77;41.27;101994.06;5086328;28;20024;-61
2022/07/16 01:47:03;;;;;;;1.38;0.85;;;;;;;22.76;41.35;101992.41;5085858;28;20036;-61
2022/07/16 01:49:31;;;;;;;1.40;0.93;;;;;;;22.75;41.37;101994.25;5085542;28;20035;-61
2022/07/16 01:51:56;;;;;;;1.38;1.10;;;;;;;22.75;41.19;101999.69;5087121;28;20082;-60
2022/07/16 01:54:21;;;;;;;1.75;0.90;;;;;;;22.75;41.28;101996.13;5085304;28;20028;-60
2022/07/16 01:56:47;;;;;;;2.40;0.98;;;;;;;22.54;41.59;101964.91;5086909;28;20059;-60
2022/07/16 01:59:12;;;;;;;2.10;1.00;;;;;;;22.51;41.35;101961.69;5086534;28;20031;-60
2022/07/16 02:01:37;;;;;;;1.20;0.90;;;;;;;22.55;41.29;101965.75;5087086;28;20056;-60
2022/07/16 02:04:03;;;;;;;1.50;0.80;;;;;;;22.69;41.54;101987.66;5086762;28;20109;-60
2022/07/16 02:06:28;;;;;;;1.70;0.93;;;;;;;22.71;41.24;101985.59;5085659;28;20107;-60
2022/07/16 02:08:53;;;;;;;1.55;0.90;;;;;;;22.73;41.26;101990.03;5084362;28;20038;-60
2022/07/16 02:11:18;;;;;;;1.92;0.90;;;;;;;22.73;41.62;101990.03;5072816;28;20478;-60
2022/07/16 02:13:44;;;;;;;1.88;1.00;;;;;;;22.72;41.44;101986.44;5064552;28;20017;-59
2022/07/16 02:16:10;;;;;;;2.33;1.00;;;;;;;22.47;41.53;101947.63;5066178;28;20481;-60
2022/07/16 02:18:35;;;;;;;1.88;1.15;;;;;;;22.71;41.63;101991.03;5065197;28;20089;-59
2022/07/16 02:21:01;;;;;;;1.88;0.95;;;;;;;22.71;41.37;101987.47;5066534;28;20032;-60
2022/07/16 02:23:26;;;;;;;2.80;1.13;;;;;;;22.72;41.43;101983.75;5066244;28;20021;-60
2022/07/16 02:25:51;;;;;;;1.45;0.90;;;;;;;22.71;41.62;101992.91;5048664;28;20108;-60
2022/07/16 02:28:16;;;;;;;2.35;1.08;;;;;;;22.41;41.60;101940.16;5066178;28;20029;-59
2022/07/16 02:30:44;;;;;;;1.20;0.93;;;;;;;22.69;41.68;101989.53;5064434;28;20035;-60
2022/07/16 02:33:13;;;;;;;2.95;1.05;;;;;;;22.69;41.52;101997.66;5066453;28;20035;-60
2022/07/16 02:35:39;;;;;;;1.63;1.10;;;;;;;22.45;41.78;101969.47;5065938;28;20059;-60
2022/07/16 02:38:06;;;;;;;1.70;0.80;;;;;;;22.45;41.87;101958.63;5047917;28;20029;-60
2022/07/16 02:40:33;;;;;;;1.27;1.00;;;;;;;22.69;41.58;101998.50;5066004;28;20028;-60
2022/07/16 02:42:58;;;;;;;2.88;1.30;;;;;;;22.68;41.90;102004.94;5065546;28;20036;-60
2022/07/16 02:45:24;;;;;;;1.63;1.02;;;;;;;22.68;41.88;102007.66;5064093;28;20064;-60
2022/07/16 02:47:49;;;;;;;1.40;0.90;;;;;;;22.67;42.02;102002.38;5065843;28;20036;-61
2022/07/16 02:50:14;;;;;;;1.30;0.90;;;;;;;22.67;41.86;102003.22;5065750;28;20040;-61
2022/07/16 02:52:40;;;;;;;1.88;1.23;;;;;;;22.44;41.94;101964.25;5065885;28;20025;-61
2022/07/16 02:55:05;;;;;;;2.33;1.30;;;;;;;22.47;41.91;101982.84;5064364;28;20035;-60
2022/07/16 02:57:30;;;;;;;3.40;1.23;;;;;;;22.37;41.91;101964.03;5065833;28;20043;-60
2022/07/16 02:59:56;;;;;;;2.35;1.23;;;;;;;22.64;41.88;102005.41;5065328;28;20028;-60
2022/07/16 03:02:21;;;;;;;2.38;1.02;;;;;;;22.41;42.17;101973.53;5065935;28;20031;-60
2022/07/16 03:04:46;;;;;;;2.28;1.05;;;;;;;22.61;42.08;102008.47;5047394;28;20031;-61
2022/07/16 03:07:12;;;;;;;1.55;1.10;;;;;;;22.65;42.04;102021.53;5064507;28;20029;-61
2022/07/16 03:09:37;;;;;;;2.28;1.60;;;;;;;22.62;42.07;102011.00;5065571;28;20505;-60
2022/07/16 03:12:03;;;;;;;1.63;1.00;;;;;;;22.64;42.22;102029.81;5084036;28;20074;-60
2022/07/16 03:14:28;;;;;;;1.17;0.80;;;;;;;22.63;42.48;102038.97;5066845;28;20043;-60
2022/07/16 03:16:53;;;;;;;1.30;0.90;;;;;;;22.64;42.23;102037.94;5085730;28;20024;-61
2022/07/16 03:19:19;;;;;;;3.17;0.98;;;;;;;22.64;42.45;102037.94;5085522;28;20032;-61
2022/07/16 03:21:44;;;;;;;1.63;1.23;;;;;;;22.63;42.51;102052.53;5085349;28;20032;-61
2022/07/16 03:24:09;;;;;;;1.45;0.80;;;;;;;22.62;42.39;102057.09;5085146;28;20028;-61
2022/07/16 03:26:34;;;;;;;2.67;1.20;;;;;;;22.44;42.85;102032.81;5085492;28;20031;-61
2022/07/16 03:29:00;;;;;;;1.90;1.02;;;;;;;22.62;42.90;102061.69;5085203;28;20024;-60
2022/07/16 03:31:25;;;;;;;1.92;1.08;;;;;;;22.61;43.14;102068.13;5083858;28;20115;-60
2022/07/16 03:33:50;;;;;;;2.53;1.23;;;;;;;22.61;43.37;102068.13;5085207;28;20028;-60
2022/07/16 03:36:15;;;;;;;1.60;0.98;;;;;;;22.61;43.87;102066.25;5085295;28;20028;-59
2022/07/16 03:41:24;;;;;;;2.75;1.67;;;;;;;22.38;44.33;102030.75;5085320;28;20085;-60
2022/07/16 03:43:50;;;;;;;1.88;0.95;;;;;;;22.58;44.34;102063.88;5084623;28;20020;-60
2022/07/16 03:46:15;;;;;;;2.72;1.35;;;;;;;22.38;44.62;102038.88;5083378;28;20036;-60
2022/07/16 03:48:42;;;;;;;1.65;0.93;;;;;;;22.58;44.73;102074.69;5085219;28;20072;-59
2022/07/16 03:51:08;;;;;;;1.90;1.13;;;;;;;22.50;44.52;102063.00;5085198;28;20029;-60
2022/07/16 03:53:34;;;;;;;2.88;1.27;;;;;;;22.34;45.16;102037.53;5083761;28;20025;-60
2022/07/16 03:55:59;;;;;;;2.53;1.05;;;;;;;22.58;45.08;102082.00;5085458;28;20029;-60
2022/07/16 03:58:26;;;;;;;1.85;0.90;;;;;;;22.58;45.27;102084.69;5083968;28;20028;-60
2022/07/16 04:00:51;;;;;;;1.55;1.00;;;;;;;22.36;45.17;102051.78;5084697;28;20439;-60
2022/07/16 04:03:17;;;;;;;2.63;1.00;;;;;;;22.48;45.28;102067.75;5084127;28;20024;-60
2022/07/16 04:05:42;;;;;;;2.00;0.93;;;;;;;22.34;45.63;102048.34;5084840;28;20024;-60
2022/07/16 04:08:07;;;;;;;3.42;1.20;;;;;;;22.56;45.85;102087.59;5083859;28;20108;-60
2022/07/16 04:10:32;;;;;;;2.63;1.77;;;;;;;22.38;46.06;102057.84;5076181;28;20085;-60
2022/07/16 04:12:58;;;;;;;2.35;0.80;;;;;;;22.56;45.61;102090.28;5064569;28;20029;-60
2022/07/16 04:15:23;;;;;;;2.20;0.95;;;;;;;22.54;45.87;102097.72;5063296;28;20056;-60
2022/07/16 04:17:48;;;;;;;1.23;0.77;;;;;;;22.43;46.08;102084.50;5063400;28;20017;-60
2022/07/16 04:20:13;;;;;;;3.40;1.00;;;;;;;22.40;46.46;102077.53;5064538;28;20025;-60
2022/07/16 04:22:39;;;;;;;2.05;0.90;;;;;;;22.54;46.18;102105.00;5063446;28;20031;-60
2022/07/16 04:25:04;;;;;;;1.75;0.90;;;;;;;22.54;46.50;102116.69;5063284;28;20824;-60
2022/07/16 04:27:30;;;;;;;2.17;0.70;;;;;;;22.54;46.58;102116.69;5064884;28;20044;-60
2022/07/16 04:29:55;;;;;;;1.23;0.85;;;;;;;22.54;46.50;102111.28;5062955;28;20021;-60
2022/07/16 04:32:21;;;;;;;4.45;1.40;;;;;;;22.52;46.69;102112.47;5065764;28;20021;-60
2022/07/16 04:34:46;;;;;;;2.72;1.23;;;;;;;22.37;46.62;102087.84;5068027;28;20025;-60
2022/07/16 04:37:11;;;;;;;1.30;0.80;;;;;;;22.33;46.69;102078.34;5068395;28;20039;-60
2022/07/16 04:39:37;;;;;;;1.25;0.80;;;;;;;22.54;47.03;102118.56;5067307;28;20129;-61
2022/07/16 04:42:02;;;;;;;1.63;1.13;;;;;;;22.53;46.86;102125.84;5067983;28;20025;-61
2022/07/16 04:44:28;;;;;;;3.22;0.93;;;;;;;22.55;46.79;102131.09;5066264;28;20025;-61
2022/07/16 04:46:53;;;;;;;1.13;0.80;;;;;;;22.54;46.97;102130.25;5066697;28;20055;-61
2022/07/16 04:49:18;;;;;;;2.28;1.10;;;;;;;22.54;47.15;102121.28;5068238;28;20045;-61
2022/07/16 04:51:43;;;;;;;2.58;1.00;;;;;;;22.54;47.29;102126.69;5068208;28;20092;-61
2022/07/16 04:54:09;;;;;;;2.05;0.80;;;;;;;22.54;47.11;102129.41;5067754;28;20527;-61
2022/07/16 04:56:34;;;;;;;1.48;0.95;;;;;;;22.53;47.11;102133.13;5067015;28;20043;-61
2022/07/16 04:58:59;;;;;;;2.78;1.00;;;;;;;22.51;47.45;102136.00;5066661;28;20033;-61
2022/07/16 05:01:24;;;;;;;1.60;0.98;;;;;;;22.53;47.69;102143.97;5067485;28;20032;-61
2022/07/16 05:03:50;;;;;;;1.73;0.70;;;;;;;22.52;47.40;102140.44;5067277;28;20031;-61
2022/07/16 05:06:15;;;;;;;1.85;0.85;;;;;;;22.53;47.36;102143.97;5062729;28;20046;-61
2022/07/16 05:08:40;;;;;;;2.90;1.20;;;;;;;22.34;47.34;102107.97;5047658;28;20014;-61
2022/07/16 05:11:05;;;;;;;2.05;0.88;;;;;;;22.51;47.29;102137.84;5071982;28;20024;-61
2022/07/16 05:13:31;;;;;;;1.40;0.85;;;;;;;22.30;47.17;102106.63;5085799;28;20090;-61
2022/07/16 05:15:57;;;;;;;1.52;0.88;;;;;;;22.52;47.50;102143.13;5086965;28;20028;-61
2022/07/16 05:18:22;;;;;;;1.48;0.90;;;;;;;22.47;47.34;102150.88;5087650;28;20528;-60
2022/07/16 05:20:47;;;;;;;1.65;0.73;;;;;;;22.51;47.65;102157.69;5087531;28;20026;-60
2022/07/16 05:23:12;;;;;;;0.93;0.70;;;;;;;22.31;47.47;102118.31;5087326;28;20122;-60
2022/07/16 05:25:38;;;;;;;2.90;1.10;;;;;;;22.51;47.22;102151.41;5086059;28;20050;-60
2022/07/16 05:28:03;;;;;;;1.42;0.80;;;;;;;22.46;47.46;102149.19;5069250;28;20048;-61
2022/07/16 05:30:28;;;;;;;1.85;0.98;;;;;;;22.48;47.39;102157.19;5085429;28;20067;-61
2022/07/16 05:32:54;;;;;;;2.97;1.10;;;;;;;22.49;47.58;102164.28;5086166;28;20046;-60
2022/07/16 05:35:19;;;;;;;1.58;1.02;;;;;;;22.48;47.39;102163.44;5085808;28;20024;-60
2022/07/16 05:37:44;;;;;;;2.50;1.00;;;;;;;22.45;47.58;102167.31;5087154;28;20137;-60
2022/07/16 05:40:11;;;;;;;1.70;0.70;;;;;;;22.49;47.27;102165.13;5087411;28;20016;-60
2022/07/16 05:42:36;;;;;;;3.13;1.00;;;;;;;22.28;47.38;102124.88;5087000;28;20020;-60
2022/07/16 05:45:02;;;;;;;2.55;0.90;;;;;;;22.24;47.24;102123.50;5085952;28;20020;-60
2022/07/16 05:47:28;;;;;;;1.40;0.70;;;;;;;22.43;47.48;102160.38;5086815;28;20055;-60
2022/07/16 05:49:53;;;;;;;2.60;1.40;;;;;;;22.48;47.59;102174.28;5086842;28;20051;-61
2022/07/16 05:52:18;;;;;;;3.63;1.17;;;;;;;22.48;47.37;102176.16;5068889;28;20051;-61
2022/07/16 05:54:43;;;;;;;1.73;0.60;;;;;;;22.48;47.32;102181.56;5086505;28;20032;-61
2022/07/16 05:57:09;;;;;;;2.13;0.80;;;;;;;22.44;47.11;102175.63;5068872;28;20381;-60
2022/07/16 05:59:34;;;;;;;1.95;0.75;;;;;;;22.24;47.44;102149.75;5086158;28;20021;-60
2022/07/16 06:01:59;;;;;;;3.50;1.10;;;;;;;22.46;47.31;102179.84;5086812;28;20020;-59
2022/07/16 06:04:25;;;;;;;3.60;1.00;;;;;;;22.47;47.61;102177.97;5085372;28;20036;-60
2022/07/16 06:06:50;;;;;;;3.65;1.27;;;;;;;22.29;47.44;102158.25;5086729;28;20032;-60
2022/07/16 06:09:15;;;;;;;1.52;0.90;;;;;;;22.44;47.34;102197.28;5086666;28;20024;-60
2022/07/16 06:11:41;;;;;;;2.30;1.00;;;;;;;22.48;47.42;102197.81;5086207;28;20078;-60
2022/07/16 06:14:06;;;;;;;1.85;0.90;;;;;;;22.48;47.33;102205.97;5086108;28;20034;-59
2022/07/16 06:16:31;;;;;;;1.88;1.13;;;;;;;22.48;47.50;102204.09;5084717;28;20032;-60
2022/07/16 06:18:57;;;;;;;2.97;1.10;;;;;;;22.48;47.48;102204.09;5086203;28;20058;-60
2022/07/16 06:21:22;;;;;;;2.33;1.10;;;;;;;22.46;47.20;102215.06;5086678;28;20080;-60
2022/07/16 06:23:47;;;;;;;2.58;1.10;;;;;;;22.49;47.38;102223.91;5085915;28;20032;-60
2022/07/16 06:26:13;;;;;;;2.25;1.13;;;;;;;22.36;47.24;102195.38;5086548;28;20032;-60
2022/07/16 06:28:38;;;;;;;3.92;0.90;;;;;;;22.47;47.03;102229.47;5086002;28;20466;-61
2022/07/16 06:31:03;;;;;;;2.97;1.10;;;;;;;22.45;46.94;102229.66;5084517;28;20024;-61
2022/07/16 06:33:28;;;;;;;2.00;0.70;;;;;;;22.26;46.96;102201.91;5085944;28;20020;-61
2022/07/16 06:35:54;;;;;;;2.75;0.80;;;;;;;22.40;46.60;102231.16;5084605;28;20083;-61
2022/07/16 06:38:19;;;;;;;3.42;0.90;;;;;;;22.25;46.65;102205.63;5067795;28;20047;-61
2022/07/16 06:40:44;;;;;;;3.10;0.95;;;;;;;22.42;46.59;102237.25;5086122;28;20035;-61
2022/07/16 06:43:10;;;;;;;2.53;1.00;;;;;;;22.38;46.56;102235.84;5085555;28;20058;-61
2022/07/16 06:45:36;;;;;;;3.33;0.90;;;;;;;22.41;46.37;102243.69;5084820;28;20075;-61
2022/07/16 06:48:01;;;;;;;1.25;0.65;;;;;;;22.31;45.98;102234.81;5084789;28;20461;-61
2022/07/16 06:50:26;;;;;;;3.60;1.17;;;;;;;22.42;46.31;102253.50;5084227;28;20078;-61
2022/07/16 06:52:52;;;;;;;1.17;0.68;;;;;;;22.42;46.28;102256.22;5085954;28;20029;-61
2022/07/16 06:55:17;;;;;;;4.13;1.13;;;;;;;22.42;46.12;102253.50;5085027;28;20016;-60
2022/07/16 06:57:42;;;;;;;2.65;0.90;;;;;;;22.42;46.11;102257.06;5085768;28;20020;-61
2022/07/16 07:00:09;;;;;;;2.63;0.95;;;;;;;22.43;46.31;102263.34;5084940;28;20056;-61
2022/07/16 07:02:34;;;;;;;1.55;0.80;;;;;;;22.43;46.15;102260.66;5085647;28;20028;-61
2022/07/16 07:05:00;;;;;;;2.40;1.30;;;;;;;22.44;46.15;102259.63;5084197;28;20020;-60
2022/07/16 07:07:25;;;;;;;2.85;0.77;;;;;;;22.44;45.63;102263.19;5084256;28;20032;-60
2022/07/16 07:09:50;;;;;;;2.13;0.93;;;;;;;22.44;45.64;102271.31;5083406;28;20035;-60
2022/07/16 07:12:16;;;;;;;2.47;0.98;;;;;;;22.42;45.34;102265.19;5064067;28;20025;-60
2022/07/16 07:14:41;;;;;;;3.50;0.60;;;;;;;22.44;45.58;102267.75;5064384;28;20043;-59
2022/07/16 07:17:06;;;;;;;3.22;1.05;;;;;;;22.19;45.04;102232.34;5065512;28;20078;-60
2022/07/16 07:19:31;;;;;;;3.20;0.70;;;;;;;22.43;45.12;102277.75;5063885;28;20024;-60
2022/07/16 07:21:56;;;;;;;2.58;1.08;;;;;;;22.43;45.08;102280.47;5065543;28;20081;-60
2022/07/16 07:24:22;;;;;;;1.92;0.90;;;;;;;22.43;44.85;102282.31;5064632;28;20029;-60
2022/07/16 07:26:47;;;;;;;1.92;0.80;;;;;;;22.42;45.13;102278.75;5065278;28;20397;-60
2022/07/16 07:29:12;;;;;;;3.72;1.02;;;;;;;22.26;44.83;102259.69;5065004;28;20040;-60
2022/07/16 07:31:37;;;;;;;2.80;1.08;;;;;;;22.27;45.01;102260.53;5063267;28;20033;-60
2022/07/16 07:34:03;;;;;;;1.30;0.80;;;;;;;22.48;45.04;102295.41;5064897;28;20048;-60
2022/07/16 07:36:28;;;;;;;1.65;0.88;;;;;;;22.48;44.81;102289.97;5065084;28;20485;-61
2022/07/16 07:38:53;;;;;;;2.35;0.88;;;;;;;22.49;44.38;102295.22;5063633;28;20033;-60
2022/07/16 07:41:19;;;;;;;5.13;1.30;;;;;;;22.49;44.45;102297.09;5065248;28;20029;-61
2022/07/16 07:43:44;;;;;;;2.95;0.80;;;;;;;22.49;44.33;102308.78;5063003;28;20359;-61
2022/07/16 07:46:09;;;;;;;3.53;0.80;;;;;;;22.47;43.91;102302.66;5063037;28;20132;-61
2022/07/16 07:48:34;;;;;;;2.75;0.80;;;;;;;22.48;44.14;102307.09;5064997;28;20028;-61
2022/07/16 07:51:00;;;;;;;1.52;0.68;;;;;;;22.48;43.94;102303.53;5064941;28;20033;-60
2022/07/16 07:53:25;;;;;;;2.47;1.15;;;;;;;22.46;43.90;102300.97;5064920;28;20390;-60
2022/07/16 07:55:51;;;;;;;3.80;0.90;;;;;;;22.48;43.72;102306.25;5064988;28;20036;-61
2022/07/16 07:58:16;;;;;;;1.48;0.70;;;;;;;22.46;43.83;102311.81;5063656;28;20021;-60
2022/07/16 08:00:42;;;;;;;2.78;0.85;;;;;;;22.49;43.66;102307.94;5064461;28;20017;-60
2022/07/16 08:03:08;;;;;;;3.33;0.93;;;;;;;22.49;43.36;102307.94;5063869;28;20061;-60
2022/07/16 08:05:33;;;;;;;2.47;0.75;;;;;;;22.30;43.42;102277.31;5063783;28;20032;-59
2022/07/16 08:07:59;;;;;;;2.67;0.90;;;;;;;22.51;42.97;102311.31;5066969;28;20037;-60
2022/07/16 08:10:24;;;;;;;2.47;1.20;;;;;;;22.51;43.53;102323.00;5068852;28;20052;-61
2022/07/16 08:12:49;;;;;;;1.10;0.60;;;;;;;22.52;43.13;102313.03;5067274;28;20048;-61
2022/07/16 08:15:15;;;;;;;1.50;0.60;;;;;;;22.34;42.93;102278.69;5067934;28;20068;-61
2022/07/16 08:17:40;;;;;;;1.67;0.98;;;;;;;22.55;42.73;102307.28;5068909;28;20029;-61
2022/07/16 08:20:07;;;;;;;4.50;1.10;;;;;;;22.55;42.71;102315.41;5068300;28;20036;-61
2022/07/16 08:22:32;;;;;;;1.70;0.80;;;;;;;22.56;42.67;102311.72;5067322;28;20031;-59
2022/07/16 08:27:41;;;;;;;1.85;0.60;;;;;;;22.58;42.55;102323.25;5067646;28;20509;-60
2022/07/16 08:30:07;;;;;;;2.78;0.80;;;;;;;22.59;42.09;102325.78;5067878;28;20028;-60
2022/07/16 08:32:32;;;;;;;1.20;0.68;;;;;;;22.43;42.26;102302.16;5068500;28;20377;-60
2022/07/16 08:34:58;;;;;;;3.22;0.93;;;;;;;22.41;41.83;102292.47;5066704;28;20055;-61
2022/07/16 08:37:49;;;;;;;1.98;0.70;;;;;;;22.64;41.92;102338.84;5068314;28;20024;-61
2022/07/16 08:40:17;;;;;;;2.55;0.85;;;;;;;22.58;41.82;102328.66;5066896;28;20059;-60
2022/07/16 08:42:42;;;;;;;2.15;0.82;;;;;;;22.68;41.90;102329.41;5066653;28;20025;-60
2022/07/16 08:45:09;;;;;;;1.95;0.52;;;;;;;22.69;41.63;102339.25;5065888;28;20035;-60
2022/07/16 08:47:35;;;;;;;1.33;0.70;;;;;;;22.71;41.39;102343.50;5067146;28;20421;-60
2022/07/16 08:50:03;;;;;;;1.77;0.88;;;;;;;22.45;41.21;102296.56;5066749;28;20047;-60
2022/07/16 08:52:29;;;;;;;2.15;0.80;;;;;;;22.70;41.29;102349.94;5066847;28;20041;-60
2022/07/16 08:54:55;;;;;;;1.05;0.50;;;;;;;22.69;41.49;102350.94;5067748;28;20166;-60
2022/07/16 08:57:21;;;;;;;3.05;0.50;;;;;;;22.68;41.51;102351.09;5067042;28;20025;-60
2022/07/16 08:59:47;;;;;;;3.17;0.70;;;;;;;22.70;41.52;102366.19;5067226;28;20016;-60
2022/07/16 09:02:13;;;;;;;1.98;0.70;;;;;;;22.69;41.31;102359.09;5066473;28;20451;-60
2022/07/16 09:04:39;;;;;;;1.90;0.50;;;;;;;22.48;41.24;102336.06;5066410;28;20029;-59
2022/07/16 09:07:04;;;;;;;4.07;0.77;;;;;;;22.67;41.69;102373.78;5066879;28;20029;-60
2022/07/16 09:09:30;;;;;;;2.22;0.60;;;;;;;22.67;41.62;102373.78;5066357;28;20477;-60
2022/07/16 09:11:55;;;;;;;2.53;0.80;;;;;;;22.65;41.79;102379.38;5085319;28;20119;-60
2022/07/16 09:14:20;;;;;;;2.03;0.80;;;;;;;22.50;41.71;102364.69;5087223;28;20029;-60
2022/07/16 09:16:49;;;;;;;2.25;0.60;;;;;;;22.50;41.86;102350.28;5085916;28;20044;-61
2022/07/16 09:19:25;;;;;;;4.32;0.95;;;;;;;22.70;41.51;102381.63;5085568;28;20021;-60
2022/07/16 09:21:59;;;;;;;2.80;0.88;;;;;;;22.72;41.85;102382.28;5087554;28;20028;-60
2022/07/16 09:24:31;;;;;;;1.58;0.60;;;;;;;22.75;41.62;102394.69;5085938;28;20084;-61
2022/07/16 09:27:03;;;;;;;1.20;0.60;;;;;;;22.55;41.67;102362.34;5087536;28;20025;-60
2022/07/16 09:29:29;;;;;;;3.40;0.93;;;;;;;22.56;41.84;102349.66;5087121;28;20028;-60
2022/07/16 09:31:54;;;;;;;2.10;0.90;;;;;;;22.56;41.88;102368.66;5085716;28;20024;-61
2022/07/16 09:34:20;;;;;;;1.48;0.50;;;;;;;22.74;41.97;102393.00;5087029;28;20058;-61
2022/07/16 09:37:00;;;;;;;1.30;0.75;;;;;;;22.82;42.00;102412.91;5086135;28;20063;-61
2022/07/16 09:39:26;;;;;;;1.52;0.95;;;;;;;22.83;41.99;102400.19;5085598;28;20091;-61
2022/07/16 09:41:51;;;;;;;2.42;0.85;;;;;;;22.84;42.01;102396.47;5086050;28;20028;-60
2022/07/16 09:44:26;;;;;;;1.40;0.70;;;;;;;22.84;42.00;102394.59;5086926;28;20032;-61
2022/07/16 09:47:06;;;;;;;2.10;0.60;;;;;;;22.87;41.97;102407.84;5068641;28;20467;-60
2022/07/16 09:49:36;;;;;;;2.42;0.70;;;;;;;22.89;42.87;102415.81;5085443;28;20021;-60
2022/07/16 09:52:02;;;;;;;2.00;0.55;;;;;;;22.70;42.53;102384.34;5087349;28;20027;-60
2022/07/16 09:54:32;;;;;;;2.38;0.50;;;;;;;22.69;42.19;102382.63;5086741;28;20028;-60
2022/07/16 09:57:16;;;;;;;2.30;0.60;;;;;;;22.89;42.02;102419.38;5069030;28;20024;-60
2022/07/16 09:59:42;;;;;;;1.92;0.90;;;;;;;22.89;42.22;102430.22;5086497;28;20033;-59
2022/07/16 10:02:07;;;;;;;3.20;0.80;;;;;;;22.88;42.11;102430.38;5085338;28;20035;-60
2022/07/16 10:04:33;;;;;;;2.20;1.15;;;;;;;22.67;42.19;102399.03;5085122;28;20024;-60
2022/07/16 10:06:59;;;;;;;2.35;1.15;;;;;;;22.89;41.86;102429.38;5085508;28;20453;-60
2022/07/16 10:09:25;;;;;;;3.40;1.05;;;;;;;22.88;42.10;102428.53;5085374;28;20025;-61
2022/07/16 10:11:53;;;;;;;1.50;0.50;;;;;;;22.89;41.66;102437.50;5066592;28;20051;-61
2022/07/16 10:14:19;;;;;;;3.80;0.80;;;;;;;22.88;41.40;102428.53;5048415;28;20028;-60
2022/07/16 10:16:45;;;;;;;2.20;0.70;;;;;;;22.89;41.17;102427.50;5065055;28;20228;-61
2022/07/16 10:19:11;;;;;;;3.15;0.90;;;;;;;22.89;41.24;102427.50;5066638;28;20017;-60
2022/07/16 10:21:37;;;;;;;2.70;0.88;;;;;;;22.91;41.69;102424.69;5065019;28;20029;-60
2022/07/16 10:24:05;;;;;;;1.83;0.65;;;;;;;22.74;42.24;102403.84;5066090;28;20036;-60
2022/07/16 10:26:32;;;;;;;3.13;0.88;;;;;;;22.95;42.77;102439.63;5064876;28;20442;-60
2022/07/16 10:28:57;;;;;;;1.33;0.80;;;;;;;22.93;42.82;102445.19;5066265;28;20021;-60
2022/07/16 10:34:34;;;;;;;1.98;0.68;;;;;;;22.97;41.92;102444.88;5064934;28;20124;-60
2022/07/16 10:36:59;;;;;;;1.77;0.85;;;;;;;22.97;41.78;102450.31;5064806;28;20017;-61
2022/07/16 10:39:26;;;;;;;1.73;0.77;;;;;;;22.97;42.40;102456.59;5064443;28;20033;-61
2022/07/16 10:41:53;;;;;;;3.30;0.70;;;;;;;22.98;42.68;102447.47;5065792;28;20029;-61
2022/07/16 10:44:19;;;;;;;1.90;0.70;;;;;;;22.99;42.68;102456.44;5065489;28;20025;-61
2022/07/16 10:46:52;;;;;;;2.85;0.90;;;;;;;23.01;42.77;102459.84;5065346;28;20086;-61
2022/07/16 10:49:18;;;;;;;3.63;0.60;;;;;;;23.02;42.86;102461.53;5064441;28;20355;-60
2022/07/16 10:52:05;;;;;;;0.93;0.40;;;;;;;23.03;42.88;102461.41;5064589;28;20017;-60
2022/07/16 10:54:38;;;;;;;2.50;0.75;;;;;;;23.02;42.80;102456.97;5064422;28;20021;-60
2022/07/16 10:57:08;;;;;;;1.13;0.40;;;;;;;23.06;42.69;102460.22;5064559;28;20027;-60
2022/07/16 10:59:47;;;;;;;1.92;0.60;;;;;;;23.05;43.04;102453.94;5065404;28;20029;-61
2022/07/16 11:02:15;;;;;;;1.33;0.40;;;;;;;22.85;42.64;102431.56;5048203;28;20716;-61
2022/07/16 11:04:43;;;;;;;4.43;0.50;;;;;;;23.09;42.91;102468.03;5065192;28;20059;-60
2022/07/16 11:07:11;;;;;;;1.73;0.77;;;;;;;23.10;42.86;102472.44;5065379;28;20084;-60
2022/07/16 11:09:39;;;;;;;3.90;0.95;;;;;;;23.10;43.02;102476.00;5065390;28;20108;-60
2022/07/16 11:12:11;;;;;;;1.58;0.55;;;;;;;23.12;42.88;102481.31;5045467;28;20017;-60
2022/07/16 11:14:38;;;;;;;0.98;0.40;;;;;;;23.15;42.80;102478.25;5045417;28;20470;-60
2022/07/16 11:17:03;;;;;;;0.85;0.50;;;;;;;23.16;42.91;102472.69;5043750;28;20033;-61
2022/07/16 11:19:29;;;;;;;1.38;0.40;;;;;;;23.17;42.77;102476.25;5060517;28;20057;-60
2022/07/16 11:21:55;;;;;;;1.05;0.40;;;;;;;23.18;42.44;102476.06;5044067;28;20021;-60
2022/07/16 11:24:21;;;;;;;1.75;0.68;;;;;;;23.18;42.80;102481.50;5045123;28;20071;-60
2022/07/16 11:26:48;;;;;;;1.10;0.60;;;;;;;23.18;42.73;102470.66;5044012;28;20026;-60
2022/07/16 11:29:13;;;;;;;3.30;0.63;;;;;;;23.20;42.84;102478.63;5045282;28;20059;-60